sensor_id;sensor_type;location;lat;lon;timestamp;P1;durP1;ratioP1;P2;durP2;ratioP2
32790;SDS011;19143;59.322;14.502;2023-03-01T00:00:37;0.67;;;0.67;;
32790;SDS011;19143;59.322;14.502;2023-03-01T00:03:04;0.60;;;0.60;;
32790;SDS011;19143;59.322;14.502;2023-03-01T00:05:33;2.30;;;0.50;;
32790;SDS011;19143;59.322;14.502;2023-03-01T00:07:59;1.67;;;0.60;;
32790;SDS011;19143;59.322;14.502;2023-03-01T00:10:26;0.63;;;0.63;;
32790;SDS011;19143;59.322;14.502;2023-03-01T00:12:52;0.90;;;0.70;;
32790;SDS011;19143;59.322;14.502;2023-03-01T00:15:20;0.80;;;0.80;;
32790;SDS011;19143;59.322;14.502;2023-03-01T00:17:46;0.47;;;0.47;;
32790;SDS011;19143;59.322;14.502;2023-03-01T00:20:13;0.50;;;0.50;;
32790;SDS011;19143;59.322;14.502;2023-03-01T00:22:44;2.57;;;0.73;;
32790;SDS011;19143;59.322;14.502;2023-03-01T00:25:17;0.90;;;0.70;;
32790;SDS011;19143;59.322;14.502;2023-03-01T00:27:44;0.63;;;0.63;;
32790;SDS011;19143;59.322;14.502;2023-03-01T00:30:10;1.53;;;0.50;;
32790;SDS011;19143;59.322;14.502;2023-03-01T00:32:37;0.83;;;0.60;;
32790;SDS011;19143;59.322;14.502;2023-03-01T00:35:05;0.40;;;0.40;;
32790;SDS011;19143;59.322;14.502;2023-03-01T00:37:35;0.87;;;0.50;;
32790;SDS011;19143;59.322;14.502;2023-03-01T00:40:04;0.30;;;0.30;;
32790;SDS011;19143;59.322;14.502;2023-03-01T00:42:35;0.53;;;0.50;;
32790;SDS011;19143;59.322;14.502;2023-03-01T00:45:02;0.40;;;0.40;;
32790;SDS011;19143;59.322;14.502;2023-03-01T00:47:32;0.30;;;0.30;;
32790;SDS011;19143;59.322;14.502;2023-03-01T00:49:59;0.30;;;0.30;;
32790;SDS011;19143;59.322;14.502;2023-03-01T00:52:25;0.40;;;0.40;;
32790;SDS011;19143;59.322;14.502;2023-03-01T00:54:53;0.40;;;0.40;;
32790;SDS011;19143;59.322;14.502;2023-03-01T00:57:21;0.60;;;0.60;;
32790;SDS011;19143;59.322;14.502;2023-03-01T00:59:48;0.50;;;0.50;;
32790;SDS011;19143;59.322;14.502;2023-03-01T01:02:14;0.60;;;0.60;;
32790;SDS011;19143;59.322;14.502;2023-03-01T01:04:41;0.40;;;0.40;;
32790;SDS011;19143;59.322;14.502;2023-03-01T01:07:08;0.40;;;0.40;;
32790;SDS011;19143;59.322;14.502;2023-03-01T01:09:34;0.60;;;0.60;;
32790;SDS011;19143;59.322;14.502;2023-03-01T01:12:02;0.57;;;0.57;;
32790;SDS011;19143;59.322;14.502;2023-03-01T01:14:33;0.80;;;0.80;;
32790;SDS011;19143;59.322;14.502;2023-03-01T01:17:00;0.70;;;0.70;;
32790;SDS011;19143;59.322;14.502;2023-03-01T01:19:27;0.80;;;0.80;;
32790;SDS011;19143;59.322;14.502;2023-03-01T01:22:07;0.70;;;0.70;;
32790;SDS011;19143;59.322;14.502;2023-03-01T01:24:35;0.53;;;0.53;;
32790;SDS011;19143;59.322;14.502;2023-03-01T01:27:02;0.50;;;0.50;;
32790;SDS011;19143;59.322;14.502;2023-03-01T01:29:29;0.87;;;0.87;;
32790;SDS011;19143;59.322;14.502;2023-03-01T01:31:57;0.57;;;0.50;;
32790;SDS011;19143;59.322;14.502;2023-03-01T01:34:24;0.30;;;0.30;;
32790;SDS011;19143;59.322;14.502;2023-03-01T01:36:52;0.20;;;0.20;;
32790;SDS011;19143;59.322;14.502;2023-03-01T01:39:19;0.30;;;0.30;;
32790;SDS011;19143;59.322;14.502;2023-03-01T01:41:46;0.40;;;0.40;;
32790;SDS011;19143;59.322;14.502;2023-03-01T01:44:15;0.50;;;0.50;;
32790;SDS011;19143;59.322;14.502;2023-03-01T01:46:42;2.33;;;0.70;;
32790;SDS011;19143;59.322;14.502;2023-03-01T01:49:15;1.90;;;0.50;;
32790;SDS011;19143;59.322;14.502;2023-03-01T01:51:43;0.37;;;0.37;;
32790;SDS011;19143;59.322;14.502;2023-03-01T01:54:14;0.33;;;0.33;;
32790;SDS011;19143;59.322;14.502;2023-03-01T01:56:44;0.63;;;0.63;;
32790;SDS011;19143;59.322;14.502;2023-03-01T01:59:20;0.30;;;0.30;;
32790;SDS011;19143;59.322;14.502;2023-03-01T02:01:50;0.40;;;0.40;;
32790;SDS011;19143;59.322;14.502;2023-03-01T02:04:27;0.60;;;0.60;;
32790;SDS011;19143;59.322;14.502;2023-03-01T02:07:01;0.87;;;0.60;;
32790;SDS011;19143;59.322;14.502;2023-03-01T02:09:51;0.50;;;0.50;;
32790;SDS011;19143;59.322;14.502;2023-03-01T02:12:39;0.60;;;0.60;;
32790;SDS011;19143;59.322;14.502;2023-03-01T02:15:23;0.30;;;0.30;;
32790;SDS011;19143;59.322;14.502;2023-03-01T02:18:02;0.40;;;0.40;;
32790;SDS011;19143;59.322;14.502;2023-03-01T02:20:55;0.50;;;0.50;;
32790;SDS011;19143;59.322;14.502;2023-03-01T02:23:42;0.40;;;0.40;;
32790;SDS011;19143;59.322;14.502;2023-03-01T02:26:40;0.37;;;0.37;;
32790;SDS011;19143;59.322;14.502;2023-03-01T02:38:06;0.93;;;0.40;;
32790;SDS011;19143;59.322;14.502;2023-03-01T02:40:55;1.23;;;0.50;;
32790;SDS011;19143;59.322;14.502;2023-03-01T02:43:41;0.63;;;0.40;;
32790;SDS011;19143;59.322;14.502;2023-03-01T02:46:15;0.40;;;0.40;;
32790;SDS011;19143;59.322;14.502;2023-03-01T02:49:00;0.43;;;0.43;;
32790;SDS011;19143;59.322;14.502;2023-03-01T02:54:46;0.60;;;0.40;;
32790;SDS011;19143;59.322;14.502;2023-03-01T03:00:16;0.30;;;0.30;;
32790;SDS011;19143;59.322;14.502;2023-03-01T03:02:55;0.77;;;0.60;;
32790;SDS011;19143;59.322;14.502;2023-03-01T03:05:31;0.67;;;0.67;;
32790;SDS011;19143;59.322;14.502;2023-03-01T03:07:59;0.47;;;0.47;;
32790;SDS011;19143;59.322;14.502;2023-03-01T03:10:36;0.43;;;0.43;;
32790;SDS011;19143;59.322;14.502;2023-03-01T03:13:03;0.40;;;0.40;;
32790;SDS011;19143;59.322;14.502;2023-03-01T03:15:30;0.67;;;0.50;;
32790;SDS011;19143;59.322;14.502;2023-03-01T03:18:01;0.40;;;0.40;;
32790;SDS011;19143;59.322;14.502;2023-03-01T03:20:28;0.67;;;0.60;;
32790;SDS011;19143;59.322;14.502;2023-03-01T03:22:55;0.47;;;0.47;;
32790;SDS011;19143;59.322;14.502;2023-03-01T03:25:23;0.50;;;0.50;;
32790;SDS011;19143;59.322;14.502;2023-03-01T03:27:52;1.90;;;0.40;;
32790;SDS011;19143;59.322;14.502;2023-03-01T03:30:22;0.40;;;0.40;;
32790;SDS011;19143;59.322;14.502;2023-03-01T03:32:50;0.40;;;0.40;;
32790;SDS011;19143;59.322;14.502;2023-03-01T03:35:18;0.80;;;0.80;;
32790;SDS011;19143;59.322;14.502;2023-03-01T03:37:45;0.60;;;0.60;;
32790;SDS011;19143;59.322;14.502;2023-03-01T03:40:32;0.50;;;0.50;;
32790;SDS011;19143;59.322;14.502;2023-03-01T03:43:01;2.33;;;0.60;;
32790;SDS011;19143;59.322;14.502;2023-03-01T03:45:27;0.60;;;0.60;;
32790;SDS011;19143;59.322;14.502;2023-03-01T03:47:54;0.60;;;0.60;;
32790;SDS011;19143;59.322;14.502;2023-03-01T03:50:21;1.00;;;0.50;;
32790;SDS011;19143;59.322;14.502;2023-03-01T03:52:48;0.60;;;0.60;;
32790;SDS011;19143;59.322;14.502;2023-03-01T03:55:14;0.50;;;0.50;;
32790;SDS011;19143;59.322;14.502;2023-03-01T03:57:45;0.40;;;0.40;;
32790;SDS011;19143;59.322;14.502;2023-03-01T04:00:16;1.40;;;0.80;;
32790;SDS011;19143;59.322;14.502;2023-03-01T04:02:44;0.50;;;0.50;;
32790;SDS011;19143;59.322;14.502;2023-03-01T04:05:12;0.60;;;0.60;;
32790;SDS011;19143;59.322;14.502;2023-03-01T04:07:39;0.80;;;0.50;;
32790;SDS011;19143;59.322;14.502;2023-03-01T04:10:07;0.50;;;0.50;;
32790;SDS011;19143;59.322;14.502;2023-03-01T04:12:34;0.60;;;0.60;;
32790;SDS011;19143;59.322;14.502;2023-03-01T04:15:01;0.47;;;0.40;;
32790;SDS011;19143;59.322;14.502;2023-03-01T04:17:39;0.50;;;0.50;;
32790;SDS011;19143;59.322;14.502;2023-03-01T04:20:07;0.67;;;0.67;;
32790;SDS011;19143;59.322;14.502;2023-03-01T04:22:34;4.13;;;0.80;;
32790;SDS011;19143;59.322;14.502;2023-03-01T04:25:01;1.10;;;0.53;;
32790;SDS011;19143;59.322;14.502;2023-03-01T04:27:30;0.60;;;0.60;;
32790;SDS011;19143;59.322;14.502;2023-03-01T04:29:56;0.97;;;0.70;;
32790;SDS011;19143;59.322;14.502;2023-03-01T04:32:24;0.80;;;0.80;;
32790;SDS011;19143;59.322;14.502;2023-03-01T04:34:52;0.50;;;0.50;;
32790;SDS011;19143;59.322;14.502;2023-03-01T04:37:18;9.70;;;0.80;;
32790;SDS011;19143;59.322;14.502;2023-03-01T04:39:45;1.30;;;0.43;;
32790;SDS011;19143;59.322;14.502;2023-03-01T04:42:12;0.50;;;0.50;;
32790;SDS011;19143;59.322;14.502;2023-03-01T04:44:39;1.80;;;0.70;;
32790;SDS011;19143;59.322;14.502;2023-03-01T04:47:05;0.60;;;0.60;;
32790;SDS011;19143;59.322;14.502;2023-03-01T04:49:32;0.70;;;0.70;;
32790;SDS011;19143;59.322;14.502;2023-03-01T04:52:00;0.90;;;0.90;;
32790;SDS011;19143;59.322;14.502;2023-03-01T04:54:28;1.70;;;0.57;;
32790;SDS011;19143;59.322;14.502;2023-03-01T04:56:55;0.50;;;0.50;;
32790;SDS011;19143;59.322;14.502;2023-03-01T04:59:21;1.00;;;1.00;;
32790;SDS011;19143;59.322;14.502;2023-03-01T05:01:49;1.80;;;0.80;;
32790;SDS011;19143;59.322;14.502;2023-03-01T05:04:15;1.37;;;0.80;;
32790;SDS011;19143;59.322;14.502;2023-03-01T05:06:42;0.83;;;0.83;;
32790;SDS011;19143;59.322;14.502;2023-03-01T05:09:10;0.80;;;0.80;;
32790;SDS011;19143;59.322;14.502;2023-03-01T05:11:37;0.50;;;0.50;;
32790;SDS011;19143;59.322;14.502;2023-03-01T05:14:04;0.83;;;0.70;;
32790;SDS011;19143;59.322;14.502;2023-03-01T05:16:31;0.83;;;0.83;;
32790;SDS011;19143;59.322;14.502;2023-03-01T05:18:58;0.80;;;0.80;;
32790;SDS011;19143;59.322;14.502;2023-03-01T05:21:25;0.70;;;0.70;;
32790;SDS011;19143;59.322;14.502;2023-03-01T05:23:51;0.70;;;0.70;;
32790;SDS011;19143;59.322;14.502;2023-03-01T05:26:20;0.70;;;0.70;;
32790;SDS011;19143;59.322;14.502;2023-03-01T05:28:52;0.57;;;0.57;;
32790;SDS011;19143;59.322;14.502;2023-03-01T05:31:21;2.20;;;0.50;;
32790;SDS011;19143;59.322;14.502;2023-03-01T05:33:48;0.70;;;0.70;;
32790;SDS011;19143;59.322;14.502;2023-03-01T05:36:14;3.63;;;1.20;;
32790;SDS011;19143;59.322;14.502;2023-03-01T05:38:41;8.27;;;1.00;;
32790;SDS011;19143;59.322;14.502;2023-03-01T05:41:13;3.27;;;0.80;;
32790;SDS011;19143;59.322;14.502;2023-03-01T05:43:41;0.97;;;0.97;;
32790;SDS011;19143;59.322;14.502;2023-03-01T05:46:09;2.23;;;1.10;;
32790;SDS011;19143;59.322;14.502;2023-03-01T05:48:38;0.90;;;0.90;;
32790;SDS011;19143;59.322;14.502;2023-03-01T05:51:05;0.80;;;0.80;;
32790;SDS011;19143;59.322;14.502;2023-03-01T05:53:31;0.70;;;0.70;;
32790;SDS011;19143;59.322;14.502;2023-03-01T05:55:58;0.70;;;0.70;;
32790;SDS011;19143;59.322;14.502;2023-03-01T05:58:25;1.33;;;0.90;;
32790;SDS011;19143;59.322;14.502;2023-03-01T06:00:53;0.80;;;0.80;;
32790;SDS011;19143;59.322;14.502;2023-03-01T06:03:20;1.40;;;1.10;;
32790;SDS011;19143;59.322;14.502;2023-03-01T06:05:47;0.73;;;0.73;;
32790;SDS011;19143;59.322;14.502;2023-03-01T06:08:13;1.13;;;0.80;;
32790;SDS011;19143;59.322;14.502;2023-03-01T06:10:40;1.03;;;0.87;;
32790;SDS011;19143;59.322;14.502;2023-03-01T06:13:07;1.00;;;1.00;;
32790;SDS011;19143;59.322;14.502;2023-03-01T06:15:33;4.43;;;0.90;;
32790;SDS011;19143;59.322;14.502;2023-03-01T06:18:01;0.97;;;0.97;;
32790;SDS011;19143;59.322;14.502;2023-03-01T06:20:28;0.67;;;0.67;;
32790;SDS011;19143;59.322;14.502;2023-03-01T06:22:55;0.63;;;0.63;;
32790;SDS011;19143;59.322;14.502;2023-03-01T06:25:22;2.43;;;0.90;;
32790;SDS011;19143;59.322;14.502;2023-03-01T06:27:49;1.57;;;0.90;;
32790;SDS011;19143;59.322;14.502;2023-03-01T06:30:17;1.50;;;0.80;;
32790;SDS011;19143;59.322;14.502;2023-03-01T06:32:45;7.00;;;1.27;;
32790;SDS011;19143;59.322;14.502;2023-03-01T06:35:13;2.00;;;1.00;;
32790;SDS011;19143;59.322;14.502;2023-03-01T06:37:42;6.60;;;1.10;;
32790;SDS011;19143;59.322;14.502;2023-03-01T06:40:09;1.60;;;1.30;;
32790;SDS011;19143;59.322;14.502;2023-03-01T06:42:38;1.27;;;1.10;;
32790;SDS011;19143;59.322;14.502;2023-03-01T06:45:06;2.50;;;1.33;;
32790;SDS011;19143;59.322;14.502;2023-03-01T06:47:33;1.10;;;1.10;;
32790;SDS011;19143;59.322;14.502;2023-03-01T06:50:00;11.57;;;1.57;;
32790;SDS011;19143;59.322;14.502;2023-03-01T06:52:28;1.70;;;1.43;;
32790;SDS011;19143;59.322;14.502;2023-03-01T06:54:55;2.43;;;1.73;;
32790;SDS011;19143;59.322;14.502;2023-03-01T06:57:22;15.00;;;1.43;;
32790;SDS011;19143;59.322;14.502;2023-03-01T06:59:49;0.90;;;0.90;;
32790;SDS011;19143;59.322;14.502;2023-03-01T07:02:15;5.10;;;1.30;;
32790;SDS011;19143;59.322;14.502;2023-03-01T07:04:42;2.10;;;1.00;;
32790;SDS011;19143;59.322;14.502;2023-03-01T07:07:10;3.70;;;1.10;;
32790;SDS011;19143;59.322;14.502;2023-03-01T07:09:38;3.87;;;0.90;;
32790;SDS011;19143;59.322;14.502;2023-03-01T07:12:05;1.97;;;1.43;;
32790;SDS011;19143;59.322;14.502;2023-03-01T07:14:33;1.70;;;1.50;;
32790;SDS011;19143;59.322;14.502;2023-03-01T07:16:59;1.20;;;1.20;;
32790;SDS011;19143;59.322;14.502;2023-03-01T07:19:26;4.63;;;3.10;;
32790;SDS011;19143;59.322;14.502;2023-03-01T07:21:52;3.50;;;1.80;;
32790;SDS011;19143;59.322;14.502;2023-03-01T07:24:20;4.47;;;1.97;;
32790;SDS011;19143;59.322;14.502;2023-03-01T07:26:50;4.43;;;1.60;;
32790;SDS011;19143;59.322;14.502;2023-03-01T07:29:16;1.77;;;1.67;;
32790;SDS011;19143;59.322;14.502;2023-03-01T07:31:43;1.40;;;1.40;;
32790;SDS011;19143;59.322;14.502;2023-03-01T07:34:10;1.43;;;1.30;;
32790;SDS011;19143;59.322;14.502;2023-03-01T07:36:37;1.70;;;1.40;;
32790;SDS011;19143;59.322;14.502;2023-03-01T07:39:04;1.40;;;1.27;;
32790;SDS011;19143;59.322;14.502;2023-03-01T07:41:31;1.50;;;1.17;;
32790;SDS011;19143;59.322;14.502;2023-03-01T07:44:00;1.33;;;1.00;;
32790;SDS011;19143;59.322;14.502;2023-03-01T07:46:26;1.40;;;1.40;;
32790;SDS011;19143;59.322;14.502;2023-03-01T07:48:53;2.53;;;1.30;;
32790;SDS011;19143;59.322;14.502;2023-03-01T07:51:20;0.90;;;0.90;;
32790;SDS011;19143;59.322;14.502;2023-03-01T07:53:46;0.80;;;0.80;;
32790;SDS011;19143;59.322;14.502;2023-03-01T07:56:14;3.13;;;1.07;;
32790;SDS011;19143;59.322;14.502;2023-03-01T07:58:42;1.07;;;1.07;;
32790;SDS011;19143;59.322;14.502;2023-03-01T08:01:11;9.90;;;1.20;;
32790;SDS011;19143;59.322;14.502;2023-03-01T08:03:38;3.17;;;1.17;;
32790;SDS011;19143;59.322;14.502;2023-03-01T08:06:06;1.27;;;1.10;;
32790;SDS011;19143;59.322;14.502;2023-03-01T08:08:33;1.40;;;1.30;;
32790;SDS011;19143;59.322;14.502;2023-03-01T08:11:01;5.17;;;1.10;;
32790;SDS011;19143;59.322;14.502;2023-03-01T08:13:28;1.07;;;0.80;;
32790;SDS011;19143;59.322;14.502;2023-03-01T08:15:59;1.50;;;0.90;;
32790;SDS011;19143;59.322;14.502;2023-03-01T08:18:28;1.50;;;0.90;;
32790;SDS011;19143;59.322;14.502;2023-03-01T08:20:56;0.80;;;0.80;;
32790;SDS011;19143;59.322;14.502;2023-03-01T08:23:22;0.60;;;0.60;;
32790;SDS011;19143;59.322;14.502;2023-03-01T08:25:49;1.17;;;0.80;;
32790;SDS011;19143;59.322;14.502;2023-03-01T08:28:15;4.87;;;0.90;;
32790;SDS011;19143;59.322;14.502;2023-03-01T08:30:42;11.83;;;0.87;;
32790;SDS011;19143;59.322;14.502;2023-03-01T08:33:09;1.20;;;1.10;;
32790;SDS011;19143;59.322;14.502;2023-03-01T08:35:37;0.77;;;0.57;;
32790;SDS011;19143;59.322;14.502;2023-03-01T08:38:03;2.47;;;0.80;;
32790;SDS011;19143;59.322;14.502;2023-03-01T08:40:30;0.87;;;0.50;;
32790;SDS011;19143;59.322;14.502;2023-03-01T08:42:57;0.47;;;0.47;;
32790;SDS011;19143;59.322;14.502;2023-03-01T08:45:24;0.40;;;0.40;;
32790;SDS011;19143;59.322;14.502;2023-03-01T08:47:55;3.67;;;0.60;;
32790;SDS011;19143;59.322;14.502;2023-03-01T08:50:22;1.73;;;0.50;;
32790;SDS011;19143;59.322;14.502;2023-03-01T08:52:51;0.50;;;0.30;;
32790;SDS011;19143;59.322;14.502;2023-03-01T08:55:19;0.50;;;0.30;;
32790;SDS011;19143;59.322;14.502;2023-03-01T08:57:48;0.63;;;0.43;;
32790;SDS011;19143;59.322;14.502;2023-03-01T09:00:15;1.60;;;0.40;;
32790;SDS011;19143;59.322;14.502;2023-03-01T09:02:42;0.30;;;0.30;;
32790;SDS011;19143;59.322;14.502;2023-03-01T09:05:09;0.20;;;0.20;;
32790;SDS011;19143;59.322;14.502;2023-03-01T09:07:35;1.23;;;0.20;;
32790;SDS011;19143;59.322;14.502;2023-03-01T09:10:05;0.40;;;0.40;;
32790;SDS011;19143;59.322;14.502;2023-03-01T09:12:32;0.23;;;0.23;;
32790;SDS011;19143;59.322;14.502;2023-03-01T09:14:59;0.53;;;0.50;;
32790;SDS011;19143;59.322;14.502;2023-03-01T09:17:25;0.73;;;0.57;;
32790;SDS011;19143;59.322;14.502;2023-03-01T09:19:52;0.70;;;0.50;;
32790;SDS011;19143;59.322;14.502;2023-03-01T09:22:18;0.77;;;0.40;;
32790;SDS011;19143;59.322;14.502;2023-03-01T09:24:46;0.20;;;0.20;;
32790;SDS011;19143;59.322;14.502;2023-03-01T09:27:14;0.30;;;0.30;;
32790;SDS011;19143;59.322;14.502;2023-03-01T09:29:44;0.57;;;0.40;;
32790;SDS011;19143;59.322;14.502;2023-03-01T09:32:11;2.23;;;0.30;;
32790;SDS011;19143;59.322;14.502;2023-03-01T09:34:37;0.73;;;0.40;;
32790;SDS011;19143;59.322;14.502;2023-03-01T09:37:18;0.33;;;0.33;;
32790;SDS011;19143;59.322;14.502;2023-03-01T09:39:44;2.83;;;0.40;;
32790;SDS011;19143;59.322;14.502;2023-03-01T09:42:11;5.30;;;0.57;;
32790;SDS011;19143;59.322;14.502;2023-03-01T09:44:40;2.10;;;0.60;;
32790;SDS011;19143;59.322;14.502;2023-03-01T09:47:09;5.20;;;0.23;;
32790;SDS011;19143;59.322;14.502;2023-03-01T09:49:39;4.07;;;0.30;;
32790;SDS011;19143;59.322;14.502;2023-03-01T09:52:09;2.97;;;0.57;;
32790;SDS011;19143;59.322;14.502;2023-03-01T09:54:38;1.10;;;0.40;;
32790;SDS011;19143;59.322;14.502;2023-03-01T09:57:06;1.27;;;0.40;;
32790;SDS011;19143;59.322;14.502;2023-03-01T09:59:40;0.80;;;0.40;;
32790;SDS011;19143;59.322;14.502;2023-03-01T10:02:14;3.50;;;0.30;;
32790;SDS011;19143;59.322;14.502;2023-03-01T10:04:45;1.20;;;0.40;;
32790;SDS011;19143;59.322;14.502;2023-03-01T10:07:21;6.10;;;0.80;;
32790;SDS011;19143;59.322;14.502;2023-03-01T10:09:53;2.20;;;0.50;;
32790;SDS011;19143;59.322;14.502;2023-03-01T10:12:20;0.43;;;0.30;;
32790;SDS011;19143;59.322;14.502;2023-03-01T10:14:53;0.57;;;0.57;;
32790;SDS011;19143;59.322;14.502;2023-03-01T10:17:26;9.40;;;0.80;;
32790;SDS011;19143;59.322;14.502;2023-03-01T10:19:54;1.90;;;0.43;;
32790;SDS011;19143;59.322;14.502;2023-03-01T10:22:22;0.30;;;0.30;;
32790;SDS011;19143;59.322;14.502;2023-03-01T10:24:51;0.37;;;0.37;;
32790;SDS011;19143;59.322;14.502;2023-03-01T10:27:19;0.90;;;0.50;;
32790;SDS011;19143;59.322;14.502;2023-03-01T10:29:49;4.90;;;0.43;;
32790;SDS011;19143;59.322;14.502;2023-03-01T10:32:18;0.30;;;0.30;;
32790;SDS011;19143;59.322;14.502;2023-03-01T10:34:47;5.33;;;0.90;;
32790;SDS011;19143;59.322;14.502;2023-03-01T10:37:14;0.63;;;0.40;;
32790;SDS011;19143;59.322;14.502;2023-03-01T10:40:00;6.83;;;0.47;;
32790;SDS011;19143;59.322;14.502;2023-03-01T10:42:31;0.60;;;0.60;;
32790;SDS011;19143;59.322;14.502;2023-03-01T10:45:14;0.40;;;0.40;;
32790;SDS011;19143;59.322;14.502;2023-03-01T10:48:04;3.07;;;0.43;;
32790;SDS011;19143;59.322;14.502;2023-03-01T10:50:31;0.57;;;0.50;;
32790;SDS011;19143;59.322;14.502;2023-03-01T10:52:58;0.67;;;0.30;;
32790;SDS011;19143;59.322;14.502;2023-03-01T10:55:27;5.60;;;0.50;;
32790;SDS011;19143;59.322;14.502;2023-03-01T10:58:09;0.67;;;0.40;;
32790;SDS011;19143;59.322;14.502;2023-03-01T11:00:45;5.90;;;0.67;;
32790;SDS011;19143;59.322;14.502;2023-03-01T11:03:14;0.30;;;0.30;;
32790;SDS011;19143;59.322;14.502;2023-03-01T11:05:51;7.23;;;0.30;;
32790;SDS011;19143;59.322;14.502;2023-03-01T11:08:32;4.53;;;0.30;;
32790;SDS011;19143;59.322;14.502;2023-03-01T11:11:03;5.80;;;0.50;;
32790;SDS011;19143;59.322;14.502;2023-03-01T11:13:30;0.93;;;0.20;;
32790;SDS011;19143;59.322;14.502;2023-03-01T11:16:00;1.27;;;0.73;;
32790;SDS011;19143;59.322;14.502;2023-03-01T11:18:29;3.07;;;0.50;;
32790;SDS011;19143;59.322;14.502;2023-03-01T11:20:56;0.40;;;0.30;;
32790;SDS011;19143;59.322;14.502;2023-03-01T11:23:24;1.97;;;0.53;;
32790;SDS011;19143;59.322;14.502;2023-03-01T11:25:53;2.43;;;0.40;;
32790;SDS011;19143;59.322;14.502;2023-03-01T11:28:21;0.53;;;0.40;;
32790;SDS011;19143;59.322;14.502;2023-03-01T11:30:50;0.63;;;0.40;;
32790;SDS011;19143;59.322;14.502;2023-03-01T11:33:20;3.10;;;0.33;;
32790;SDS011;19143;59.322;14.502;2023-03-01T11:35:53;2.90;;;0.53;;
32790;SDS011;19143;59.322;14.502;2023-03-01T11:38:22;10.70;;;0.70;;
32790;SDS011;19143;59.322;14.502;2023-03-01T11:40:52;9.40;;;0.70;;
32790;SDS011;19143;59.322;14.502;2023-03-01T11:43:26;1.43;;;0.30;;
32790;SDS011;19143;59.322;14.502;2023-03-01T11:45:58;0.77;;;0.20;;
32790;SDS011;19143;59.322;14.502;2023-03-01T11:48:37;3.90;;;0.50;;
32790;SDS011;19143;59.322;14.502;2023-03-01T11:51:08;2.43;;;0.43;;
32790;SDS011;19143;59.322;14.502;2023-03-01T11:53:41;0.77;;;0.30;;
32790;SDS011;19143;59.322;14.502;2023-03-01T11:56:16;12.67;;;0.60;;
32790;SDS011;19143;59.322;14.502;2023-03-01T11:58:50;0.53;;;0.37;;
32790;SDS011;19143;59.322;14.502;2023-03-01T12:01:36;2.20;;;0.30;;
32790;SDS011;19143;59.322;14.502;2023-03-01T12:06:52;4.07;;;0.30;;
32790;SDS011;19143;59.322;14.502;2023-03-01T12:09:25;1.90;;;0.23;;
32790;SDS011;19143;59.322;14.502;2023-03-01T12:11:58;1.73;;;0.50;;
32790;SDS011;19143;59.322;14.502;2023-03-01T12:14:34;13.33;;;0.70;;
32790;SDS011;19143;59.322;14.502;2023-03-01T12:17:15;13.77;;;1.03;;
32790;SDS011;19143;59.322;14.502;2023-03-01T12:22:34;1.00;;;0.30;;
32790;SDS011;19143;59.322;14.502;2023-03-01T12:25:10;0.20;;;0.20;;
32790;SDS011;19143;59.322;14.502;2023-03-01T12:27:43;2.07;;;0.43;;
32790;SDS011;19143;59.322;14.502;2023-03-01T12:30:17;0.13;;;0.10;;
32790;SDS011;19143;59.322;14.502;2023-03-01T12:32:47;0.40;;;0.40;;
32790;SDS011;19143;59.322;14.502;2023-03-01T12:38:04;0.30;;;0.20;;
32790;SDS011;19143;59.322;14.502;2023-03-01T12:40:33;0.83;;;0.30;;
32790;SDS011;19143;59.322;14.502;2023-03-01T12:43:07;6.30;;;0.40;;
32790;SDS011;19143;59.322;14.502;2023-03-01T12:45:40;8.27;;;0.57;;
32790;SDS011;19143;59.322;14.502;2023-03-01T12:48:20;2.47;;;0.83;;
32790;SDS011;19143;59.322;14.502;2023-03-01T12:50:51;3.00;;;0.13;;
32790;SDS011;19143;59.322;14.502;2023-03-01T12:53:24;0.20;;;0.10;;
32790;SDS011;19143;59.322;14.502;2023-03-01T12:55:52;0.33;;;0.33;;
32790;SDS011;19143;59.322;14.502;2023-03-01T12:58:22;1.80;;;0.30;;
32790;SDS011;19143;59.322;14.502;2023-03-01T13:00:54;0.73;;;0.47;;
32790;SDS011;19143;59.322;14.502;2023-03-01T13:03:24;4.63;;;0.50;;
32790;SDS011;19143;59.322;14.502;2023-03-01T13:05:57;1.53;;;0.23;;
32790;SDS011;19143;59.322;14.502;2023-03-01T13:08:31;1.60;;;0.23;;
32790;SDS011;19143;59.322;14.502;2023-03-01T13:11:00;0.53;;;0.40;;
32790;SDS011;19143;59.322;14.502;2023-03-01T13:13:28;5.30;;;0.50;;
32790;SDS011;19143;59.322;14.502;2023-03-01T13:15:55;5.67;;;0.33;;
32790;SDS011;19143;59.322;14.502;2023-03-01T13:18:32;0.83;;;0.30;;
32790;SDS011;19143;59.322;14.502;2023-03-01T13:21:00;12.30;;;0.30;;
32790;SDS011;19143;59.322;14.502;2023-03-01T13:23:28;0.30;;;0.30;;
32790;SDS011;19143;59.322;14.502;2023-03-01T13:26:14;0.50;;;0.33;;
32790;SDS011;19143;59.322;14.502;2023-03-01T13:28:49;10.50;;;0.77;;
32790;SDS011;19143;59.322;14.502;2023-03-01T13:34:02;8.97;;;0.53;;
32790;SDS011;19143;59.322;14.502;2023-03-01T13:39:27;12.43;;;0.43;;
32790;SDS011;19143;59.322;14.502;2023-03-01T13:42:02;1.77;;;0.53;;
32790;SDS011;19143;59.322;14.502;2023-03-01T13:44:30;0.20;;;0.20;;
32790;SDS011;19143;59.322;14.502;2023-03-01T13:46:59;16.47;;;0.80;;
32790;SDS011;19143;59.322;14.502;2023-03-01T13:49:27;3.87;;;0.77;;
32790;SDS011;19143;59.322;14.502;2023-03-01T13:51:54;6.47;;;0.60;;
32790;SDS011;19143;59.322;14.502;2023-03-01T13:54:25;0.53;;;0.40;;
32790;SDS011;19143;59.322;14.502;2023-03-01T13:57:00;1.00;;;0.33;;
32790;SDS011;19143;59.322;14.502;2023-03-01T13:59:28;8.50;;;0.40;;
32790;SDS011;19143;59.322;14.502;2023-03-01T14:01:56;8.60;;;0.40;;
32790;SDS011;19143;59.322;14.502;2023-03-01T14:04:24;2.10;;;0.43;;
32790;SDS011;19143;59.322;14.502;2023-03-01T14:06:52;6.80;;;0.37;;
32790;SDS011;19143;59.322;14.502;2023-03-01T14:09:19;3.10;;;0.40;;
32790;SDS011;19143;59.322;14.502;2023-03-01T14:12:12;4.87;;;0.70;;
32790;SDS011;19143;59.322;14.502;2023-03-01T14:14:45;2.40;;;0.50;;
32790;SDS011;19143;59.322;14.502;2023-03-01T14:19:56;6.13;;;0.60;;
32790;SDS011;19143;59.322;14.502;2023-03-01T14:22:25;10.93;;;0.80;;
32790;SDS011;19143;59.322;14.502;2023-03-01T14:24:55;21.33;;;0.80;;
32790;SDS011;19143;59.322;14.502;2023-03-01T14:27:23;9.93;;;0.70;;
32790;SDS011;19143;59.322;14.502;2023-03-01T14:29:57;2.67;;;0.67;;
32790;SDS011;19143;59.322;14.502;2023-03-01T14:32:24;4.20;;;0.50;;
32790;SDS011;19143;59.322;14.502;2023-03-01T14:34:51;0.43;;;0.43;;
32790;SDS011;19143;59.322;14.502;2023-03-01T14:37:19;3.40;;;0.60;;
32790;SDS011;19143;59.322;14.502;2023-03-01T14:39:47;2.93;;;0.50;;
32790;SDS011;19143;59.322;14.502;2023-03-01T14:42:23;2.40;;;0.60;;
32790;SDS011;19143;59.322;14.502;2023-03-01T14:44:52;9.90;;;0.93;;
32790;SDS011;19143;59.322;14.502;2023-03-01T14:47:25;0.50;;;0.50;;
32790;SDS011;19143;59.322;14.502;2023-03-01T14:49:54;1.03;;;0.37;;
32790;SDS011;19143;59.322;14.502;2023-03-01T14:52:31;6.50;;;0.70;;
32790;SDS011;19143;59.322;14.502;2023-03-01T14:57:49;0.60;;;0.33;;
32790;SDS011;19143;59.322;14.502;2023-03-01T15:00:17;5.63;;;0.80;;
32790;SDS011;19143;59.322;14.502;2023-03-01T15:02:46;1.97;;;0.67;;
32790;SDS011;19143;59.322;14.502;2023-03-01T15:05:15;9.03;;;0.67;;
32790;SDS011;19143;59.322;14.502;2023-03-01T15:07:43;5.83;;;0.70;;
32790;SDS011;19143;59.322;14.502;2023-03-01T15:10:16;3.00;;;0.63;;
32790;SDS011;19143;59.322;14.502;2023-03-01T15:12:43;0.53;;;0.53;;
32790;SDS011;19143;59.322;14.502;2023-03-01T15:18:18;0.33;;;0.33;;
32790;SDS011;19143;59.322;14.502;2023-03-01T15:20:46;4.97;;;0.67;;
32790;SDS011;19143;59.322;14.502;2023-03-01T15:23:20;2.20;;;0.53;;
32790;SDS011;19143;59.322;14.502;2023-03-01T15:25:48;2.20;;;0.50;;